Terminal Aerodrome Forecast
Issued by NWS Cleveland, OH

Home | Current Version | Previous Version | Graphics & Text | Print | Product List | Glossary On
Versions: 1 2 3 4 5 6 7 8 9 10 11 12 13 14 15 16
566
FTUS41 KCLE 091734
TAFCAK
TAF
KCAK 091734Z 0918/1018 21012KT P6SM SCT070 BKN120
     FM100000 23008KT P6SM VCSH OVC035
     FM100100 26008KT 4SM -SHSN BR OVC015
     FM100700 28010G18KT 6SM -SN OVC015
     FM101300 28012KT P6SM OVC015
     FM101600 25012G20KT P6SM SCT030 BKN035=

USA.gov is the U.S. government's official web portal to all federal, state and local government web resources and services.